Time;durP1;ratioP1;P1;durP2;ratioP2;P2;SDS_P1;SDS_P2;PMS_P1;PMS_P2;Temp;Humidity;BMP_temperature;BMP_pressure;BME280_temperature;BME280_humidity;BME280_pressure;Samples;Min_cycle;Max_cycle;Signal;HPM_P1;HPM_P2
2022/01/22 00:01:47;;;;;;;0.00;0.00;;;5.90;99.90;;;;;;5082333;28;20048;-62
2022/01/22 00:04:13;;;;;;;0.00;0.00;;;6.00;99.90;;;;;;5082100;28;20047;-62
2022/01/22 00:06:38;;;;;;;0.00;0.00;;;6.00;99.90;;;;;;5082087;28;20761;-63
2022/01/22 00:09:05;;;;;;;0.00;0.00;;;5.90;99.90;;;;;;5082616;28;20040;-63
2022/01/22 00:11:36;;;;;;;0.00;0.00;;;5.90;99.90;;;;;;5082073;28;20040;-63
2022/01/22 00:16:48;;;;;;;0.00;0.00;;;6.00;99.90;;;;;;5082252;28;20052;-63
2022/01/22 00:19:13;;;;;;;0.00;0.00;;;5.90;99.90;;;;;;5081875;28;20085;-62
2022/01/22 00:21:39;;;;;;;0.00;0.00;;;6.00;99.90;;;;;;5063970;28;20056;-62
2022/01/22 00:24:08;;;;;;;0.00;0.00;;;6.00;99.90;;;;;;5080943;28;20124;-63
2022/01/22 00:26:33;;;;;;;0.00;0.00;;;5.90;99.90;;;;;;5081981;28;20048;-63
2022/01/22 00:28:59;;;;;;;0.00;0.00;;;6.00;99.90;;;;;;5074359;28;20052;-62
2022/01/22 00:31:24;;;;;;;0.00;0.00;;;6.00;99.90;;;;;;5061727;28;20352;-62
2022/01/22 00:33:51;;;;;;;0.00;0.00;;;6.00;99.90;;;;;;5061836;28;20382;-62
2022/01/22 00:36:16;;;;;;;0.00;0.00;;;6.00;99.90;;;;;;5060703;28;20091;-61
2022/01/22 00:38:42;;;;;;;0.00;0.00;;;6.00;99.90;;;;;;5060171;28;20076;-62
2022/01/22 00:41:08;;;;;;;0.10;0.10;;;6.00;99.90;;;;;;5062002;28;20090;-62
2022/01/22 00:43:33;;;;;;;0.00;0.00;;;6.00;99.90;;;;;;5061813;28;20490;-65
2022/01/22 00:45:59;;;;;;;0.00;0.00;;;6.00;99.90;;;;;;5060581;28;20037;-61
2022/01/22 00:48:25;;;;;;;0.00;0.00;;;6.10;99.90;;;;;;5061664;28;20442;-62
2022/01/22 00:50:55;;;;;;;0.00;0.00;;;6.00;99.90;;;;;;5060473;28;20041;-61
2022/01/22 00:53:20;;;;;;;0.00;0.00;;;6.00;99.90;;;;;;5061068;28;20143;-61
2022/01/22 00:55:46;;;;;;;0.00;0.00;;;6.00;99.90;;;;;;5060759;28;20128;-62
2022/01/22 00:58:12;;;;;;;0.00;0.00;;;6.00;99.90;;;;;;5061022;28;20128;-62
2022/01/22 01:00:37;;;;;;;0.00;0.00;;;6.00;99.90;;;;;;5061758;28;20127;-62
2022/01/22 01:03:03;;;;;;;0.00;0.00;;;6.00;99.90;;;;;;5060702;28;20550;-62
2022/01/22 01:05:29;;;;;;;0.00;0.00;;;6.00;99.90;;;;;;5059776;28;20048;-62
2022/01/22 01:07:55;;;;;;;0.00;0.00;;;6.00;99.90;;;;;;5042987;28;20084;-61
2022/01/22 01:10:21;;;;;;;0.00;0.00;;;6.00;99.90;;;;;;5060881;28;20070;-62
2022/01/22 01:12:48;;;;;;;0.00;0.00;;;6.00;99.90;;;;;;5043175;28;20044;-61
2022/01/22 01:32:10;;;;;;;0.00;0.00;;;6.00;99.90;;;;;;5042707;28;20106;-62
2022/01/22 01:34:32;;;;;;;0.80;0.45;;;6.00;99.90;;;;;;5059785;28;20048;-62
2022/01/22 01:36:58;;;;;;;0.00;0.00;;;6.00;99.90;;;;;;5042059;28;20688;-62
2022/01/22 01:39:26;;;;;;;0.00;0.00;;;6.00;99.90;;;;;;5060459;28;20048;-62
2022/01/22 01:41:57;;;;;;;0.00;0.00;;;6.10;99.90;;;;;;5060530;28;20048;-62
2022/01/22 01:44:24;;;;;;;0.00;0.00;;;6.00;99.90;;;;;;5060430;28;20051;-62
2022/01/22 01:46:52;;;;;;;0.00;0.00;;;6.00;99.90;;;;;;5059952;28;20032;-62
2022/01/22 01:49:19;;;;;;;0.00;0.00;;;6.00;99.90;;;;;;5042830;28;20471;-62
2022/01/22 01:51:45;;;;;;;0.00;0.00;;;6.00;99.90;;;;;;5058564;28;20146;-61
2022/01/22 01:59:24;;;;;;;0.00;0.00;;;5.90;99.90;;;;;;5059073;28;20045;-62
2022/01/22 02:01:51;;;;;;;0.00;0.00;;;6.00;99.90;;;;;;5060167;28;20049;-62
2022/01/22 02:04:17;;;;;;;0.00;0.00;;;6.00;99.90;;;;;;5059819;28;20041;-62
2022/01/22 02:06:43;;;;;;;0.00;0.00;;;6.00;99.90;;;;;;5058523;28;20045;-62
2022/01/22 02:09:10;;;;;;;0.00;0.00;;;6.80;99.90;;;;;;5060422;28;20044;-61
2022/01/22 02:11:37;;;;;;;0.00;0.00;;;6.00;99.90;;;;;;5060270;28;20135;-62
2022/01/22 02:24:54;;;;;;;0.00;0.00;;;5.90;99.90;;;;;;5059921;28;20047;-61
2022/01/22 02:27:20;;;;;;;0.00;0.00;;;5.90;99.90;;;;;;5061416;28;20045;-61
2022/01/22 02:29:46;;;;;;;0.00;0.00;;;5.90;99.90;;;;;;5068652;28;20063;-62
2022/01/22 02:35:13;;;;;;;0.00;0.00;;;5.90;99.90;;;;;;5058835;28;20044;-62
2022/01/22 02:37:44;;;;;;;0.00;0.00;;;5.90;99.90;;;;;;5060053;28;20048;-62
2022/01/22 02:40:24;;;;;;;0.00;0.00;;;5.90;99.90;;;;;;5059131;28;20052;-63
2022/01/22 02:42:50;;;;;;;0.00;0.00;;;5.90;99.90;;;;;;5059729;28;20060;-62
2022/01/22 02:45:20;;;;;;;0.00;0.00;;;5.90;99.90;;;;;;5059684;28;20571;-62
2022/01/22 02:47:45;;;;;;;0.00;0.00;;;5.90;99.90;;;;;;5061696;28;20748;-62
2022/01/22 02:50:12;;;;;;;0.00;0.00;;;5.80;99.90;;;;;;5045331;28;20045;-62
2022/01/22 02:52:38;;;;;;;0.00;0.00;;;5.80;99.90;;;;;;5063805;28;20051;-62
2022/01/22 02:55:08;;;;;;;0.00;0.00;;;5.90;99.90;;;;;;5063890;28;20044;-62
2022/01/22 02:57:35;;;;;;;0.63;0.22;;;5.90;99.90;;;;;;5063466;28;20052;-62
2022/01/22 03:00:06;;;;;;;0.00;0.00;;;5.90;99.90;;;;;;5063063;28;20043;-62
2022/01/22 03:02:32;;;;;;;0.00;0.00;;;5.80;99.90;;;;;;5063272;28;20056;-62
2022/01/22 03:04:58;;;;;;;0.00;0.00;;;6.10;99.90;;;;;;5061764;28;20044;-62
2022/01/22 03:07:25;;;;;;;0.00;0.00;;;5.80;99.90;;;;;;5063491;28;20067;-62
2022/01/22 03:09:53;;;;;;;0.00;0.00;;;5.80;99.90;;;;;;5063479;28;20499;-62
2022/01/22 03:27:49;;;;;;;;;;;5.80;99.90;;;;;;5066090;28;20776;-62
2022/01/22 03:30:15;;;;;;;0.00;0.00;;;5.80;99.90;;;;;;5074041;28;20002;-63
2022/01/22 03:32:44;;;;;;;0.00;0.00;;;5.80;99.90;;;;;;5065580;28;20052;-62
2022/01/22 03:35:23;;;;;;;0.00;0.00;;;5.80;99.90;;;;;;5082210;28;20052;-62
2022/01/22 03:37:55;;;;;;;0.00;0.00;;;5.80;99.90;;;;;;5082985;28;20070;-62
2022/01/22 03:40:25;;;;;;;0.00;0.00;;;5.70;99.90;;;;;;5083199;28;20448;-62
2022/01/22 03:42:52;;;;;;;0.00;0.00;;;5.80;99.90;;;;;;5082764;28;20043;-62
2022/01/22 03:45:20;;;;;;;0.00;0.00;;;5.80;99.90;;;;;;5082902;28;20047;-62
2022/01/22 03:47:46;;;;;;;0.00;0.00;;;5.80;99.90;;;;;;5064745;28;20069;-62
2022/01/22 03:50:14;;;;;;;0.00;0.00;;;5.70;99.90;;;;;;5081137;28;20040;-62
2022/01/22 03:52:39;;;;;;;0.00;0.00;;;5.80;99.90;;;;;;5083140;28;20101;-62
2022/01/22 03:55:10;;;;;;;0.00;0.00;;;5.70;99.90;;;;;;5082681;28;20439;-64
2022/01/22 03:57:36;;;;;;;0.00;0.00;;;5.80;99.90;;;;;;5082233;28;20048;-62
2022/01/22 04:00:05;;;;;;;0.00;0.00;;;5.80;99.90;;;;;;5082539;28;20415;-62
2022/01/22 04:05:04;;;;;;;0.00;0.00;;;5.70;99.90;;;;;;5081347;28;20127;-63
2022/01/22 04:08:06;;;;;;;0.00;0.00;;;5.70;99.90;;;;;;5081546;28;20090;-62
2022/01/22 04:10:24;;;;;;;0.00;0.00;;;5.80;99.90;;;;;;5082064;28;20549;-62
2022/01/22 04:13:05;;;;;;;0.00;0.00;;;5.70;99.90;;;;;;5081725;28;20043;-62
2022/01/22 04:15:34;;;;;;;0.00;0.00;;;5.70;99.90;;;;;;5082089;28;20125;-63
2022/01/22 04:28:57;;;;;;;0.00;0.00;;;5.80;99.90;;;;;;5074010;28;20059;-62
2022/01/22 04:31:23;;;;;;;0.00;0.00;;;5.70;99.90;;;;;;5061945;28;20127;-62
2022/01/22 04:33:49;;;;;;;0.00;0.00;;;5.70;99.90;;;;;;5061616;28;20128;-62
2022/01/22 04:36:15;;;;;;;0.00;0.00;;;5.70;99.90;;;;;;5061172;28;20535;-61
2022/01/22 04:38:40;;;;;;;0.00;0.00;;;5.70;99.90;;;;;;5061082;28;20049;-61
2022/01/22 04:41:06;;;;;;;0.00;0.00;;;5.70;99.90;;;;;;5061962;28;20514;-62
2022/01/22 04:43:34;;;;;;;0.00;0.00;;;5.70;99.90;;;;;;5062055;28;20075;-62
2022/01/22 04:46:18;;;;;;;0.00;0.00;;;5.70;99.90;;;;;;5061068;28;20052;-61
2022/01/22 04:57:11;;;;;;;0.00;0.00;;;5.70;99.90;;;;;;5061405;28;20055;-62
2022/01/22 04:59:37;;;;;;;0.00;0.00;;;5.70;99.90;;;;;;5061674;28;20088;-62
2022/01/22 05:02:02;;;;;;;0.00;0.00;;;5.70;99.90;;;;;;5043274;28;20087;-62
2022/01/22 05:04:28;;;;;;;0.00;0.00;;;5.70;99.90;;;;;;5059609;28;20079;-62
2022/01/22 05:06:54;;;;;;;0.00;0.00;;;5.70;99.90;;;;;;5061067;28;20036;-62
2022/01/22 05:09:19;;;;;;;0.00;0.00;;;5.70;99.90;;;;;;5060237;28;20055;-61
2022/01/22 05:11:45;;;;;;;0.00;0.00;;;5.70;99.90;;;;;;5043475;28;20044;-61
2022/01/22 05:14:10;;;;;;;0.00;0.00;;;5.70;99.90;;;;;;5060222;28;20063;-61
2022/01/22 05:16:37;;;;;;;0.00;0.00;;;5.60;99.90;;;;;;5061795;28;20041;-62
2022/01/22 05:19:11;;;;;;;0.00;0.00;;;5.70;99.90;;;;;;5042370;28;20071;-61
2022/01/22 05:21:38;;;;;;;0.00;0.00;;;5.60;99.90;;;;;;5060420;28;20694;-62
2022/01/22 05:24:09;;;;;;;0.00;0.00;;;5.70;99.90;;;;;;5060658;28;20078;-62
2022/01/22 05:39:28;;;;;;;0.00;0.00;;;5.60;99.90;;;;;;5060929;28;20044;-62
2022/01/22 05:41:56;;;;;;;0.00;0.00;;;5.50;99.90;;;;;;5060518;28;20144;-62
2022/01/22 05:44:21;;;;;;;0.00;0.00;;;5.60;99.90;;;;;;5059655;28;20106;-61
2022/01/22 05:46:48;;;;;;;0.00;0.00;;;5.60;99.90;;;;;;5042584;28;20479;-62
2022/01/22 05:49:14;;;;;;;0.00;0.00;;;5.60;99.90;;;;;;5059459;28;20044;-61
2022/01/22 05:51:42;;;;;;;0.00;0.00;;;5.60;99.90;;;;;;5060787;28;20037;-62
2022/01/22 05:59:39;;;;;;;0.00;0.00;;;5.60;99.90;;;;;;5060711;28;20053;-62
2022/01/22 06:02:11;;;;;;;0.00;0.00;;;5.60;99.90;;;;;;5059791;28;20041;-63
2022/01/22 06:04:37;;;;;;;0.00;0.00;;;5.60;99.90;;;;;;5059431;28;20080;-62
2022/01/22 06:07:05;;;;;;;0.00;0.00;;;5.60;99.90;;;;;;5059444;28;20033;-62
2022/01/22 06:09:34;;;;;;;0.00;0.00;;;5.60;99.90;;;;;;5060040;28;20266;-63
2022/01/22 06:12:15;;;;;;;0.00;0.00;;;5.60;99.90;;;;;;5059487;28;20430;-62
2022/01/22 06:14:41;;;;;;;0.00;0.00;;;6.90;99.90;;;;;;5060275;28;20064;-61
2022/01/22 06:17:07;;;;;;;0.00;0.00;;;5.60;99.90;;;;;;5060172;28;20036;-62
2022/01/22 06:19:32;;;;;;;0.00;0.00;;;5.70;99.90;;;;;;5059266;28;20051;-62
2022/01/22 06:21:58;;;;;;;0.00;0.00;;;5.70;99.90;;;;;;5057953;28;20044;-64
2022/01/22 06:24:24;;;;;;;0.00;0.00;;;5.70;99.90;;;;;;5059998;28;20473;-62
2022/01/22 06:26:51;;;;;;;0.00;0.00;;;5.70;99.90;;;;;;5041182;28;20067;-62
2022/01/22 06:29:16;;;;;;;0.00;0.00;;;6.00;99.90;;;;;;5071079;28;20068;-63
2022/01/22 06:31:42;;;;;;;0.00;0.00;;;5.70;99.90;;;;;;5059097;28;20388;-63
2022/01/22 06:34:08;;;;;;;0.00;0.00;;;5.70;99.90;;;;;;5059405;28;20049;-64
2022/01/22 06:36:34;;;;;;;0.00;0.00;;;6.10;99.90;;;;;;5059785;28;20044;-64
2022/01/22 06:39:17;;;;;;;0.00;0.00;;;5.70;99.90;;;;;;5059295;28;20271;-64
2022/01/22 06:41:44;;;;;;;0.00;0.00;;;6.00;99.90;;;;;;5059809;28;20044;-64
2022/01/22 06:44:14;;;;;;;0.00;0.00;;;5.70;99.90;;;;;;5041559;28;20044;-64
2022/01/22 06:46:41;;;;;;;0.00;0.00;;;5.70;99.90;;;;;;5059072;28;20044;-64
2022/01/22 06:49:07;;;;;;;0.00;0.00;;;5.70;99.90;;;;;;5059233;28;20705;-64
2022/01/22 06:51:33;;;;;;;0.00;0.00;;;5.80;99.90;;;;;;5059693;28;20052;-64
2022/01/22 06:54:01;;;;;;;0.00;0.00;;;7.00;99.90;;;;;;5059537;28;20037;-64
2022/01/22 06:56:28;;;;;;;0.00;0.00;;;5.70;99.90;;;;;;5058971;28;20142;-64
2022/01/22 06:58:54;;;;;;;0.00;0.00;;;5.70;99.90;;;;;;5041446;28;20052;-63
2022/01/22 07:01:19;;;;;;;0.00;0.00;;;5.70;99.90;;;;;;5059419;28;20040;-64
2022/01/22 07:03:45;;;;;;;0.00;0.00;;;5.70;99.90;;;;;;5059219;28;20053;-63
2022/01/22 07:06:11;;;;;;;0.00;0.00;;;5.70;99.90;;;;;;5058300;28;20048;-60
2022/01/22 07:08:36;;;;;;;0.00;0.00;;;5.70;99.90;;;;;;5059559;28;20726;-62
2022/01/22 07:11:02;;;;;;;0.00;0.00;;;5.70;99.90;;;;;;5059456;28;20093;-62
2022/01/22 07:13:28;;;;;;;0.00;0.00;;;5.70;99.90;;;;;;5059160;28;20112;-62
2022/01/22 07:15:53;;;;;;;0.00;0.00;;;5.70;99.90;;;;;;5058810;28;20087;-62
2022/01/22 07:18:19;;;;;;;0.00;0.00;;;5.70;99.90;;;;;;5058890;28;20052;-62
2022/01/22 07:20:45;;;;;;;0.00;0.00;;;5.70;99.90;;;;;;5058909;28;20602;-62
2022/01/22 07:25:44;;;;;;;0.00;0.00;;;5.70;99.90;;;;;;5058785;28;20044;-63
2022/01/22 07:28:11;;;;;;;0.00;0.00;;;5.40;99.90;;;;;;5065098;28;20751;-62
2022/01/22 07:30:38;;;;;;;0.00;0.00;;;5.70;99.90;;;;;;5065102;28;20474;-61
2022/01/22 07:33:04;;;;;;;0.00;0.00;;;5.70;99.90;;;;;;5059907;28;20041;-61
2022/01/22 07:35:33;;;;;;;0.00;0.00;;;5.70;99.90;;;;;;5062306;28;20056;-61
2022/01/22 07:38:00;;;;;;;0.00;0.00;;;5.70;99.90;;;;;;5062602;28;20103;-61
2022/01/22 07:40:26;;;;;;;0.00;0.00;;;5.70;99.90;;;;;;5062607;28;20447;-61
2022/01/22 07:42:52;;;;;;;0.00;0.00;;;5.70;99.90;;;;;;5062325;28;20045;-64
2022/01/22 07:45:18;;;;;;;0.00;0.00;;;5.70;99.90;;;;;;5062571;28;20033;-62
2022/01/22 07:47:43;;;;;;;0.00;0.00;;;5.60;99.90;;;;;;5062381;28;20049;-62
2022/01/22 07:50:09;;;;;;;0.00;0.00;;;5.60;99.90;;;;;;5061737;28;20063;-62
2022/01/22 07:52:35;;;;;;;0.00;0.00;;;5.60;99.90;;;;;;5061587;28;20067;-62
2022/01/22 07:55:02;;;;;;;0.00;0.00;;;5.60;99.90;;;;;;5062108;28;20503;-62
2022/01/22 07:57:29;;;;;;;0.00;0.00;;;5.60;99.90;;;;;;5062981;28;20388;-62
2022/01/22 07:59:55;;;;;;;0.00;0.00;;;5.50;99.90;;;;;;5061145;28;20044;-62
2022/01/22 08:02:21;;;;;;;0.00;0.00;;;5.60;99.90;;;;;;5062518;28;20546;-62
2022/01/22 08:04:46;;;;;;;0.00;0.00;;;5.60;99.90;;;;;;5061504;28;20694;-64
2022/01/22 08:07:12;;;;;;;0.00;0.00;;;5.80;99.90;;;;;;5062660;28;21224;-62
2022/01/22 08:09:38;;;;;;;0.00;0.00;;;5.60;99.90;;;;;;5061783;28;20036;-61
2022/01/22 08:12:04;;;;;;;0.00;0.00;;;5.60;99.90;;;;;;5044381;28;20144;-64
2022/01/22 08:14:30;;;;;;;0.00;0.00;;;5.50;99.90;;;;;;5062401;28;20421;-61
2022/01/22 08:16:55;;;;;;;0.00;0.00;;;5.60;99.90;;;;;;5061846;28;20029;-63
2022/01/22 08:19:23;;;;;;;0.00;0.00;;;5.60;99.90;;;;;;5060713;28;20509;-64
2022/01/22 08:21:48;;;;;;;0.00;0.00;;;5.50;99.90;;;;;;5064406;28;20048;-65
2022/01/22 08:24:15;;;;;;;0.00;0.00;;;5.60;99.90;;;;;;5073961;28;20043;-64
2022/01/22 08:26:49;;;;;;;0.00;0.00;;;5.60;99.90;;;;;;5081723;28;20056;-63
2022/01/22 08:29:15;;;;;;;0.00;0.00;;;5.60;99.90;;;;;;5070284;28;20779;-65
2022/01/22 08:32:06;;;;;;;0.00;0.00;;;5.60;99.90;;;;;;5082230;28;20044;-61
2022/01/22 08:37:16;;;;;;;0.00;0.00;;;5.60;99.90;;;;;;5082022;28;20051;-64
2022/01/22 08:39:43;;;;;;;0.00;0.00;;;5.60;99.90;;;;;;5081035;28;20056;-64
2022/01/22 08:42:09;;;;;;;0.00;0.00;;;5.60;99.90;;;;;;5082301;28;20158;-64
2022/01/22 08:44:34;;;;;;;0.00;0.00;;;5.60;99.90;;;;;;5080978;28;20163;-64
2022/01/22 08:47:01;;;;;;;0.10;0.10;;;5.60;99.90;;;;;;5081883;28;20174;-64
2022/01/22 08:49:26;;;;;;;0.00;0.00;;;5.70;99.90;;;;;;5080305;28;20079;-63
2022/01/22 08:51:53;;;;;;;0.00;0.00;;;5.70;99.90;;;;;;5081851;28;20076;-63
2022/01/22 08:54:18;;;;;;;0.00;0.00;;;5.70;99.90;;;;;;5081515;28;20047;-64
2022/01/22 08:56:44;;;;;;;0.00;0.00;;;5.80;99.90;;;;;;5081448;28;20040;-61
2022/01/22 08:59:11;;;;;;;0.00;0.00;;;5.80;99.90;;;;;;5081101;28;20028;-63
2022/01/22 09:01:41;;;;;;;0.00;0.00;;;5.70;99.90;;;;;;5081862;28;20056;-62
2022/01/22 09:04:07;;;;;;;0.00;0.00;;;5.70;99.90;;;;;;5081308;28;20035;-63
2022/01/22 09:06:33;;;;;;;0.00;0.00;;;5.70;99.90;;;;;;5080737;28;20309;-62
2022/01/22 09:09:08;;;;;;;0.00;0.00;;;5.70;99.90;;;;;;5081129;28;20036;-63
2022/01/22 09:11:34;;;;;;;0.00;0.00;;;5.70;99.90;;;;;;5081756;28;20501;-63
2022/01/22 09:14:01;;;;;;;0.00;0.00;;;5.70;99.90;;;;;;5081091;28;20066;-63
2022/01/22 09:16:26;;;;;;;0.00;0.00;;;5.70;99.90;;;;;;5080703;28;20040;-64
2022/01/22 09:18:54;;;;;;;0.00;0.00;;;5.70;99.90;;;;;;5080082;28;20036;-63
2022/01/22 09:21:20;;;;;;;0.00;0.00;;;5.80;99.90;;;;;;5081311;28;20036;-64
2022/01/22 09:23:46;;;;;;;0.00;0.00;;;5.80;99.90;;;;;;5080839;28;20623;-62
2022/01/22 09:26:11;;;;;;;0.00;0.00;;;5.80;99.90;;;;;;5080494;28;20119;-62
2022/01/22 09:28:38;;;;;;;0.00;0.00;;;5.80;99.90;;;;;;5074818;28;20036;-62
2022/01/22 09:31:04;;;;;;;0.00;0.00;;;6.50;99.90;;;;;;5062462;28;20052;-62
2022/01/22 09:33:30;;;;;;;0.00;0.00;;;5.80;99.90;;;;;;5059787;28;20048;-62
2022/01/22 09:35:55;;;;;;;0.00;0.00;;;5.80;99.90;;;;;;5060077;28;20238;-63
2022/01/22 09:38:21;;;;;;;0.00;0.00;;;5.80;99.90;;;;;;5061094;28;20154;-62
2022/01/22 09:40:47;;;;;;;0.00;0.00;;;5.80;99.90;;;;;;5060226;28;20045;-63
2022/01/22 09:43:13;;;;;;;0.00;0.00;;;5.90;99.90;;;;;;5060211;28;20041;-63
2022/01/22 09:45:39;;;;;;;0.00;0.00;;;5.90;99.90;;;;;;5060844;28;20093;-63
2022/01/22 09:48:06;;;;;;;0.00;0.00;;;5.90;99.90;;;;;;5060213;28;20040;-60
2022/01/22 09:50:34;;;;;;;0.00;0.00;;;5.90;99.90;;;;;;5059814;28;20055;-64
2022/01/22 09:53:00;;;;;;;0.00;0.00;;;5.90;99.90;;;;;;5065553;28;20036;-64
2022/01/22 09:55:25;;;;;;;0.00;0.00;;;5.90;99.90;;;;;;5079461;28;20079;-63
2022/01/22 09:57:54;;;;;;;0.00;0.00;;;5.90;99.90;;;;;;5075891;28;20709;-63
2022/01/22 10:00:19;;;;;;;0.00;0.00;;;5.90;99.90;;;;;;5060099;28;20045;-63
2022/01/22 10:02:50;;;;;;;0.00;0.00;;;5.90;99.90;;;;;;5058550;28;20385;-62
2022/01/22 10:05:34;;;;;;;0.00;0.00;;;5.90;99.90;;;;;;5063228;28;20139;-61
2022/01/22 10:08:31;;;;;;;0.00;0.00;;;6.00;99.90;;;;;;5077097;28;20588;-61
2022/01/22 10:10:59;;;;;;;0.00;0.00;;;6.00;99.90;;;;;;5068497;28;20044;-62
2022/01/22 10:13:41;;;;;;;0.00;0.00;;;6.00;99.90;;;;;;5041761;28;20047;-62
2022/01/22 10:16:27;;;;;;;0.00;0.00;;;6.10;99.90;;;;;;5060349;28;20044;-61
2022/01/22 10:19:12;;;;;;;0.00;0.00;;;6.10;99.90;;;;;;5058804;28;20551;-62
2022/01/22 10:21:39;;;;;;;0.00;0.00;;;6.20;99.90;;;;;;5060163;28;20048;-69
2022/01/22 10:24:26;;;;;;;0.00;0.00;;;6.30;99.90;;;;;;5059590;28;20098;-63
2022/01/22 10:30:03;;;;;;;0.00;0.00;;;6.40;99.90;;;;;;5068220;28;20051;-62
2022/01/22 10:32:47;;;;;;;0.00;0.00;;;6.30;99.90;;;;;;5059851;28;20391;-62
2022/01/22 10:35:18;;;;;;;0.00;0.00;;;6.30;99.90;;;;;;5058966;28;20037;-62
2022/01/22 10:37:45;;;;;;;0.00;0.00;;;6.40;99.90;;;;;;5059743;28;20040;-63
2022/01/22 10:40:28;;;;;;;0.00;0.00;;;6.40;99.90;;;;;;5060040;28;20056;-63
2022/01/22 10:43:42;;;;;;;0.00;0.00;;;6.40;99.90;;;;;;5059319;28;20045;-63
2022/01/22 10:49:04;;;;;;;0.00;0.00;;;6.60;99.90;;;;;;5058575;28;20079;-63
2022/01/22 10:51:30;;;;;;;0.00;0.00;;;6.60;99.90;;;;;;5059355;28;20736;-63
2022/01/22 10:53:59;;;;;;;0.00;0.00;;;6.70;99.90;;;;;;5059584;28;20033;-63
2022/01/22 10:56:27;;;;;;;0.00;0.00;;;7.20;99.90;;;;;;5059603;28;20048;-64
2022/01/22 10:58:58;;;;;;;0.00;0.00;;;8.10;99.90;;;;;;5058572;28;20044;-63
2022/01/22 11:01:45;;;;;;;0.00;0.00;;;8.30;99.90;;;;;;5041565;28;20059;-63
2022/01/22 11:04:13;;;;;;;0.00;0.00;;;8.00;99.90;;;;;;5039464;28;20051;-63
2022/01/22 11:06:46;;;;;;;0.00;0.00;;;7.90;99.90;;;;;;5060100;28;20047;-64
2022/01/22 11:09:11;;;;;;;0.00;0.00;;;7.30;99.90;;;;;;5062993;28;20048;-63
2022/01/22 11:11:40;;;;;;;0.00;0.00;;;7.10;99.90;;;;;;5045568;28;20048;-64
2022/01/22 11:14:08;;;;;;;0.00;0.00;;;7.00;99.90;;;;;;5063203;28;20073;-64
2022/01/22 11:16:36;;;;;;;0.00;0.00;;;6.70;99.90;;;;;;5045858;28;20044;-64
2022/01/22 11:19:03;;;;;;;0.00;0.00;;;6.70;99.90;;;;;;5062670;28;20045;-65
2022/01/22 11:21:31;;;;;;;0.00;0.00;;;6.60;99.90;;;;;;5062952;28;20041;-64
2022/01/22 11:23:58;;;;;;;0.00;0.00;;;6.60;99.90;;;;;;5062835;28;20049;-65
2022/01/22 11:26:24;;;;;;;0.00;0.00;;;6.70;99.90;;;;;;5063320;28;20048;-64
2022/01/22 11:28:53;;;;;;;0.00;0.00;;;6.70;99.90;;;;;;5072637;28;20047;-65
2022/01/22 11:31:22;;;;;;;0.00;0.00;;;7.00;99.90;;;;;;5063301;28;20045;-63
2022/01/22 11:33:50;;;;;;;0.00;0.00;;;7.40;99.90;;;;;;5064334;28;20072;-66
2022/01/22 11:36:25;;;;;;;0.00;0.00;;;7.40;99.90;;;;;;5075024;28;20127;-66
2022/01/22 11:39:01;;;;;;;0.00;0.00;;;7.40;99.90;;;;;;5064944;28;20375;-65
2022/01/22 11:41:27;;;;;;;0.00;0.00;;;7.40;99.90;;;;;;5083501;28;20090;-65
2022/01/22 11:44:11;;;;;;;0.00;0.00;;;7.60;99.90;;;;;;5082136;28;20298;-65
2022/01/22 11:46:42;;;;;;;0.00;0.00;;;7.10;99.90;;;;;;5083264;28;20036;-63
2022/01/22 11:49:18;;;;;;;0.00;0.00;;;7.10;99.90;;;;;;5073501;28;20127;-65
2022/01/22 11:51:46;;;;;;;0.00;0.00;;;7.00;99.90;;;;;;5070099;28;20044;-63
2022/01/22 11:54:14;;;;;;;0.00;0.00;;;7.00;99.90;;;;;;5071549;28;20040;-63
2022/01/22 11:56:47;;;;;;;0.00;0.00;;;7.00;99.90;;;;;;5073345;28;20044;-66
2022/01/22 11:59:31;;;;;;;0.00;0.00;;;7.00;99.90;;;;;;5082815;28;20044;-63
2022/01/22 12:02:03;;;;;;;0.00;0.00;;;7.00;99.90;;;;;;5081985;28;20067;-66
2022/01/22 12:04:38;;;;;;;0.00;0.00;;;6.90;99.90;;;;;;5081192;28;20056;-66
2022/01/22 12:07:03;;;;;;;;;;;6.90;99.90;;;;;;5082995;28;20427;-64
2022/01/22 12:15:44;;;;;;;0.00;0.00;;;6.80;99.90;;;;;;5082521;28;20044;-64
2022/01/22 12:18:16;;;;;;;0.00;0.00;;;7.40;99.90;;;;;;5062941;28;20048;-64
2022/01/22 12:23:18;;;;;;;0.00;0.00;;;6.80;99.90;;;;;;5065622;28;20118;-62
2022/01/22 12:25:44;;;;;;;0.00;0.00;;;6.70;99.90;;;;;;5067011;28;20641;-63
2022/01/22 12:28:11;;;;;;;0.00;0.00;;;7.90;99.90;;;;;;5077268;28;20044;-63
2022/01/22 12:30:49;;;;;;;0.00;0.00;;;6.70;99.90;;;;;;5077539;28;20038;-62
2022/01/22 12:33:35;;;;;;;0.00;0.00;;;6.70;99.90;;;;;;5081216;28;20089;-70
2022/01/22 12:36:03;;;;;;;0.00;0.00;;;6.80;99.90;;;;;;5063779;28;20671;-61
2022/01/22 12:43:51;;;;;;;0.00;0.00;;;6.70;99.90;;;;;;5081678;28;20055;-62
2022/01/22 12:46:17;;;;;;;0.00;0.00;;;6.70;99.90;;;;;;5064011;28;20044;-62
2022/01/22 12:48:43;;;;;;;0.00;0.00;;;6.70;99.90;;;;;;5080106;28;20066;-62
2022/01/22 12:51:10;;;;;;;0.00;0.00;;;6.60;99.90;;;;;;5072772;28;20035;-63
2022/01/22 12:53:39;;;;;;;0.00;0.00;;;6.50;99.90;;;;;;5079398;28;20047;-62
2022/01/22 12:58:39;;;;;;;0.00;0.00;;;6.50;99.90;;;;;;5081289;28;20131;-62
2022/01/22 13:01:17;;;;;;;0.00;0.00;;;6.50;99.90;;;;;;5081022;28;20056;-63
2022/01/22 13:03:45;;;;;;;0.00;0.00;;;6.50;99.90;;;;;;5079652;28;20092;-61
2022/01/22 13:06:12;;;;;;;0.00;0.00;;;6.50;99.90;;;;;;5081620;28;20508;-62
2022/01/22 13:08:38;;;;;;;0.00;0.00;;;6.50;99.90;;;;;;5081276;28;20486;-62
2022/01/22 13:11:07;;;;;;;0.00;0.00;;;6.50;99.90;;;;;;5080740;28;20036;-63
2022/01/22 13:13:34;;;;;;;0.00;0.00;;;6.50;99.90;;;;;;5081322;28;20937;-62
2022/01/22 13:16:03;;;;;;;0.00;0.00;;;6.40;99.90;;;;;;5081021;28;20101;-62
2022/01/22 13:18:44;;;;;;;0.00;0.00;;;6.40;99.90;;;;;;5080114;28;20048;-62
2022/01/22 13:21:12;;;;;;;0.00;0.00;;;6.50;99.90;;;;;;5081289;28;20040;-62
2022/01/22 13:23:39;;;;;;;0.00;0.00;;;6.70;99.90;;;;;;5081454;28;20051;-61
2022/01/22 13:26:04;;;;;;;0.00;0.00;;;6.50;99.90;;;;;;5080760;28;20045;-62
2022/01/22 13:28:36;;;;;;;0.00;0.00;;;6.70;99.90;;;;;;5074107;28;20051;-62
2022/01/22 13:31:14;;;;;;;0.00;0.00;;;6.60;99.90;;;;;;5062328;28;20112;-63
2022/01/22 13:36:22;;;;;;;0.00;0.00;;;6.50;99.90;;;;;;5060002;28;20395;-63
2022/01/22 13:49:45;;;;;;;0.00;0.00;;;6.50;99.90;;;;;;5059706;28;20089;-62
2022/01/22 13:52:18;;;;;;;0.00;0.00;;;6.40;99.90;;;;;;5060101;28;20271;-62
2022/01/22 13:54:49;;;;;;;0.00;0.00;;;6.30;99.90;;;;;;5060102;28;20063;-62
2022/01/22 13:57:20;;;;;;;0.00;0.00;;;6.30;99.90;;;;;;5060709;28;20053;-63
2022/01/22 13:59:48;;;;;;;0.00;0.00;;;6.30;99.90;;;;;;5058894;28;20039;-63
2022/01/22 14:04:52;;;;;;;0.00;0.00;;;6.20;99.90;;;;;;5064476;28;20048;-62
2022/01/22 14:07:24;;;;;;;0.00;0.00;;;6.20;99.90;;;;;;5055349;28;20135;-61
2022/01/22 14:09:51;;;;;;;0.00;0.00;;;6.20;99.90;;;;;;5065339;28;20395;-62
2022/01/22 14:12:17;;;;;;;0.00;0.00;;;7.30;99.90;;;;;;5065070;28;20044;-62
2022/01/22 14:15:01;;;;;;;0.00;0.00;;;6.40;99.90;;;;;;5064575;28;20047;-62
2022/01/22 14:17:36;;;;;;;0.00;0.00;;;6.20;99.90;;;;;;5060073;28;20176;-61
2022/01/22 14:20:04;;;;;;;0.00;0.00;;;6.20;99.90;;;;;;5045682;28;20040;-61
2022/01/22 14:22:51;;;;;;;0.00;0.00;;;6.20;99.90;;;;;;5064691;28;20052;-62
2022/01/22 14:25:18;;;;;;;0.00;0.00;;;6.50;99.90;;;;;;5064921;28;20045;-62
2022/01/22 14:27:59;;;;;;;0.00;0.00;;;6.20;99.90;;;;;;5053787;28;20075;-62
2022/01/22 14:30:37;;;;;;;0.00;0.00;;;6.20;99.90;;;;;;5064567;28;20383;-62
2022/01/22 14:33:03;;;;;;;0.00;0.00;;;6.20;99.90;;;;;;5062263;28;20300;-62
2022/01/22 14:35:30;;;;;;;0.00;0.00;;;6.20;99.90;;;;;;5064270;28;20535;-62
2022/01/22 14:37:59;;;;;;;0.00;0.00;;;6.20;99.90;;;;;;5063134;28;20052;-62
2022/01/22 14:46:02;;;;;;;0.00;0.00;;;6.20;99.90;;;;;;5045573;28;20102;-62
2022/01/22 14:48:28;;;;;;;0.00;0.00;;;6.20;99.90;;;;;;5062210;28;20133;-62
2022/01/22 14:50:53;;;;;;;0.00;0.00;;;6.20;99.90;;;;;;5046163;28;20537;-62
2022/01/22 14:53:20;;;;;;;0.00;0.00;;;6.20;99.90;;;;;;5065188;28;20052;-62
2022/01/22 14:55:50;;;;;;;0.00;0.00;;;6.10;99.90;;;;;;5062207;28;20040;-62
2022/01/22 14:58:16;;;;;;;0.00;0.00;;;6.10;99.90;;;;;;5063227;28;20499;-61
2022/01/22 15:00:43;;;;;;;0.00;0.00;;;6.10;99.90;;;;;;5063594;28;20090;-62
2022/01/22 15:03:08;;;;;;;0.00;0.00;;;6.10;99.90;;;;;;5062623;28;20051;-63
2022/01/22 15:05:34;;;;;;;0.00;0.00;;;7.40;99.90;;;;;;5063127;28;20048;-62
2022/01/22 15:08:00;;;;;;;0.00;0.00;;;6.00;99.90;;;;;;5063926;28;20044;-62
2022/01/22 15:10:26;;;;;;;0.00;0.00;;;6.10;99.90;;;;;;5063059;28;20063;-68
2022/01/22 15:12:52;;;;;;;0.00;0.00;;;6.40;99.90;;;;;;5063910;28;20051;-62
2022/01/22 15:15:20;;;;;;;0.00;0.00;;;6.30;99.90;;;;;;5060189;28;20060;-66
2022/01/22 15:20:20;;;;;;;0.00;0.00;;;6.20;99.90;;;;;;5063539;28;20056;-62
2022/01/22 15:22:46;;;;;;;0.00;0.00;;;6.10;99.90;;;;;;5067448;28;20398;-62
2022/01/22 15:25:12;;;;;;;0.00;0.00;;;6.10;99.90;;;;;;5063787;28;20047;-62
2022/01/22 15:27:38;;;;;;;0.00;0.00;;;6.00;99.90;;;;;;5063164;28;20129;-62
2022/01/22 15:30:18;;;;;;;0.00;0.00;;;6.00;99.90;;;;;;5063395;28;20048;-62
2022/01/22 15:32:54;;;;;;;0.00;0.00;;;6.00;99.90;;;;;;5061897;28;20063;-62